sensor_id;sensor_type;location;lat;lon;timestamp;P1;durP1;ratioP1;P2;durP2;ratioP2
11865;SDS011;5992;52.744;6.898;2022-07-23T00:01:44;1.10;;;0.75;;
11865;SDS011;5992;52.744;6.898;2022-07-23T00:05:03;2.73;;;0.90;;
11865;SDS011;5992;52.744;6.898;2022-07-23T00:08:09;1.00;;;0.93;;
11865;SDS011;5992;52.744;6.898;2022-07-23T00:11:45;0.87;;;0.80;;
11865;SDS011;5992;52.744;6.898;2022-07-23T00:15:01;1.13;;;0.90;;
11865;SDS011;5992;52.744;6.898;2022-07-23T00:18:30;0.73;;;0.73;;
11865;SDS011;5992;52.744;6.898;2022-07-23T00:21:49;1.07;;;0.70;;
11865;SDS011;5992;52.744;6.898;2022-07-23T00:25:09;1.77;;;1.13;;
11865;SDS011;5992;52.744;6.898;2022-07-23T00:28:16;1.10;;;0.70;;
11865;SDS011;5992;52.744;6.898;2022-07-23T00:35:04;0.73;;;0.73;;
11865;SDS011;5992;52.744;6.898;2022-07-23T00:38:25;2.30;;;1.00;;
11865;SDS011;5992;52.744;6.898;2022-07-23T00:41:32;0.90;;;0.73;;
11865;SDS011;5992;52.744;6.898;2022-07-23T00:45:06;0.70;;;0.70;;
11865;SDS011;5992;52.744;6.898;2022-07-23T00:48:22;0.60;;;0.60;;
11865;SDS011;5992;52.744;6.898;2022-07-23T00:51:54;1.00;;;1.00;;
11865;SDS011;5992;52.744;6.898;2022-07-23T00:58:33;6.23;;;1.43;;
11865;SDS011;5992;52.744;6.898;2022-07-23T01:05:07;0.75;;;0.75;;
11865;SDS011;5992;52.744;6.898;2022-07-23T01:08:42;0.85;;;0.80;;
11865;SDS011;5992;52.744;6.898;2022-07-23T01:12:12;0.90;;;0.90;;
11865;SDS011;5992;52.744;6.898;2022-07-23T01:18:37;1.17;;;0.97;;
11865;SDS011;5992;52.744;6.898;2022-07-23T01:22:06;0.90;;;0.90;;
11865;SDS011;5992;52.744;6.898;2022-07-23T01:29:01;2.77;;;0.63;;
11865;SDS011;5992;52.744;6.898;2022-07-23T01:32:29;1.03;;;0.80;;
11865;SDS011;5992;52.744;6.898;2022-07-23T01:36:00;1.60;;;1.00;;
11865;SDS011;5992;52.744;6.898;2022-07-23T01:39:17;2.45;;;1.00;;
11865;SDS011;5992;52.744;6.898;2022-07-23T01:42:46;1.10;;;1.00;;
11865;SDS011;5992;52.744;6.898;2022-07-23T01:46:08;3.30;;;0.80;;
11865;SDS011;5992;52.744;6.898;2022-07-23T01:49:37;0.90;;;0.90;;
11865;SDS011;5992;52.744;6.898;2022-07-23T01:52:53;0.85;;;0.80;;
11865;SDS011;5992;52.744;6.898;2022-07-23T01:56:13;1.00;;;0.90;;
11865;SDS011;5992;52.744;6.898;2022-07-23T02:02:49;0.80;;;0.80;;
11865;SDS011;5992;52.744;6.898;2022-07-23T02:06:25;1.23;;;1.13;;
11865;SDS011;5992;52.744;6.898;2022-07-23T02:09:30;1.20;;;1.10;;
11865;SDS011;5992;52.744;6.898;2022-07-23T02:12:59;0.93;;;0.90;;
11865;SDS011;5992;52.744;6.898;2022-07-23T02:16:06;0.90;;;0.90;;
11865;SDS011;5992;52.744;6.898;2022-07-23T02:19:26;1.30;;;1.20;;
11865;SDS011;5992;52.744;6.898;2022-07-23T02:25:57;0.90;;;0.90;;
11865;SDS011;5992;52.744;6.898;2022-07-23T02:35:57;1.57;;;1.20;;
11865;SDS011;5992;52.744;6.898;2022-07-23T02:39:28;2.65;;;0.90;;
11865;SDS011;5992;52.744;6.898;2022-07-23T02:45:54;1.20;;;1.10;;
11865;SDS011;5992;52.744;6.898;2022-07-23T02:49:26;1.00;;;1.00;;
11865;SDS011;5992;52.744;6.898;2022-07-23T02:52:43;1.15;;;0.85;;
11865;SDS011;5992;52.744;6.898;2022-07-23T03:03:29;1.30;;;1.20;;
11865;SDS011;5992;52.744;6.898;2022-07-23T03:06:45;1.10;;;1.10;;
11865;SDS011;5992;52.744;6.898;2022-07-23T03:10:20;0.90;;;0.90;;
11865;SDS011;5992;52.744;6.898;2022-07-23T03:13:40;1.40;;;1.30;;
11865;SDS011;5992;52.744;6.898;2022-07-23T03:17:11;2.10;;;1.20;;
11865;SDS011;5992;52.744;6.898;2022-07-23T03:20:41;2.60;;;1.30;;
11865;SDS011;5992;52.744;6.898;2022-07-23T03:24:12;2.27;;;1.40;;
11865;SDS011;5992;52.744;6.898;2022-07-23T03:31:09;2.10;;;1.75;;
11865;SDS011;5992;52.744;6.898;2022-07-23T03:34:28;1.30;;;1.20;;
11865;SDS011;5992;52.744;6.898;2022-07-23T03:38:07;1.65;;;1.10;;
11865;SDS011;5992;52.744;6.898;2022-07-23T03:41:37;1.20;;;1.10;;
11865;SDS011;5992;52.744;6.898;2022-07-23T03:45:00;1.10;;;1.10;;
11865;SDS011;5992;52.744;6.898;2022-07-23T03:55:15;1.25;;;1.25;;
11865;SDS011;5992;52.744;6.898;2022-07-23T04:02:05;1.60;;;1.30;;
11865;SDS011;5992;52.744;6.898;2022-07-23T04:05:38;1.37;;;1.20;;
11865;SDS011;5992;52.744;6.898;2022-07-23T04:09:00;1.27;;;1.27;;
11865;SDS011;5992;52.744;6.898;2022-07-23T04:12:35;1.43;;;1.33;;
11865;SDS011;5992;52.744;6.898;2022-07-23T04:15:56;1.60;;;1.50;;
11865;SDS011;5992;52.744;6.898;2022-07-23T04:19:15;1.80;;;1.50;;
11865;SDS011;5992;52.744;6.898;2022-07-23T04:22:38;1.50;;;1.20;;
11865;SDS011;5992;52.744;6.898;2022-07-23T04:26:11;1.40;;;1.27;;
11865;SDS011;5992;52.744;6.898;2022-07-23T04:29:17;2.97;;;1.53;;
11865;SDS011;5992;52.744;6.898;2022-07-23T04:32:50;1.63;;;1.53;;
11865;SDS011;5992;52.744;6.898;2022-07-23T04:36:06;1.70;;;1.60;;
11865;SDS011;5992;52.744;6.898;2022-07-23T04:39:27;1.70;;;1.60;;
11865;SDS011;5992;52.744;6.898;2022-07-23T04:42:46;1.55;;;1.45;;
11865;SDS011;5992;52.744;6.898;2022-07-23T04:46:11;1.47;;;1.27;;
11865;SDS011;5992;52.744;6.898;2022-07-23T04:49:27;1.40;;;1.30;;
11865;SDS011;5992;52.744;6.898;2022-07-23T04:52:47;1.53;;;1.43;;
11865;SDS011;5992;52.744;6.898;2022-07-23T04:56:16;1.50;;;1.40;;
11865;SDS011;5992;52.744;6.898;2022-07-23T04:59:53;1.67;;;1.57;;
11865;SDS011;5992;52.744;6.898;2022-07-23T05:06:48;3.77;;;1.50;;
11865;SDS011;5992;52.744;6.898;2022-07-23T05:10:10;4.55;;;1.55;;
11865;SDS011;5992;52.744;6.898;2022-07-23T05:13:43;1.30;;;1.20;;
11865;SDS011;5992;52.744;6.898;2022-07-23T05:16:48;1.77;;;1.50;;
11865;SDS011;5992;52.744;6.898;2022-07-23T05:20:08;1.47;;;1.37;;
11865;SDS011;5992;52.744;6.898;2022-07-23T05:23:38;1.50;;;1.40;;
11865;SDS011;5992;52.744;6.898;2022-07-23T05:26:58;1.57;;;1.47;;
11865;SDS011;5992;52.744;6.898;2022-07-23T05:30:20;1.10;;;1.10;;
11865;SDS011;5992;52.744;6.898;2022-07-23T05:33:49;1.40;;;1.03;;
11865;SDS011;5992;52.744;6.898;2022-07-23T05:40:51;1.30;;;1.20;;
11865;SDS011;5992;52.744;6.898;2022-07-23T05:44:22;1.70;;;1.47;;
11865;SDS011;5992;52.744;6.898;2022-07-23T05:47:41;1.00;;;1.00;;
11865;SDS011;5992;52.744;6.898;2022-07-23T05:54:15;2.33;;;1.20;;
11865;SDS011;5992;52.744;6.898;2022-07-23T06:00:58;1.17;;;1.07;;
11865;SDS011;5992;52.744;6.898;2022-07-23T06:04:27;1.30;;;1.00;;
11865;SDS011;5992;52.744;6.898;2022-07-23T06:07:44;2.47;;;1.43;;
11865;SDS011;5992;52.744;6.898;2022-07-23T06:14:43;1.60;;;1.10;;
11865;SDS011;5992;52.744;6.898;2022-07-23T06:21:50;2.10;;;1.10;;
11865;SDS011;5992;52.744;6.898;2022-07-23T06:25:27;0.90;;;0.90;;
11865;SDS011;5992;52.744;6.898;2022-07-23T06:28:46;1.23;;;1.13;;
11865;SDS011;5992;52.744;6.898;2022-07-23T06:32:07;0.90;;;0.90;;
11865;SDS011;5992;52.744;6.898;2022-07-23T06:35:38;1.10;;;1.00;;
11865;SDS011;5992;52.744;6.898;2022-07-23T06:39:01;2.00;;;1.13;;
11865;SDS011;5992;52.744;6.898;2022-07-23T06:45:36;0.80;;;0.80;;
11865;SDS011;5992;52.744;6.898;2022-07-23T06:48:56;1.27;;;0.93;;
11865;SDS011;5992;52.744;6.898;2022-07-23T06:52:15;0.80;;;0.80;;
11865;SDS011;5992;52.744;6.898;2022-07-23T06:55:33;2.57;;;1.03;;
11865;SDS011;5992;52.744;6.898;2022-07-23T06:59:05;1.50;;;1.27;;
11865;SDS011;5992;52.744;6.898;2022-07-23T07:02:35;1.00;;;0.85;;
11865;SDS011;5992;52.744;6.898;2022-07-23T07:06:04;0.90;;;0.80;;
11865;SDS011;5992;52.744;6.898;2022-07-23T07:09:08;0.70;;;0.70;;
11865;SDS011;5992;52.744;6.898;2022-07-23T07:12:43;1.60;;;0.77;;
11865;SDS011;5992;52.744;6.898;2022-07-23T07:16:02;1.55;;;0.85;;
11865;SDS011;5992;52.744;6.898;2022-07-23T07:19:23;0.83;;;0.80;;
11865;SDS011;5992;52.744;6.898;2022-07-23T07:22:28;1.03;;;0.90;;
11865;SDS011;5992;52.744;6.898;2022-07-23T07:25:48;1.07;;;0.90;;
11865;SDS011;5992;52.744;6.898;2022-07-23T07:29:05;1.83;;;0.90;;
11865;SDS011;5992;52.744;6.898;2022-07-23T07:32:40;0.75;;;0.75;;
11865;SDS011;5992;52.744;6.898;2022-07-23T07:35:56;1.05;;;0.70;;
11865;SDS011;5992;52.744;6.898;2022-07-23T07:46:18;1.43;;;0.77;;
11865;SDS011;5992;52.744;6.898;2022-07-23T07:49:34;1.03;;;0.97;;
11865;SDS011;5992;52.744;6.898;2022-07-23T07:56:19;0.85;;;0.75;;
11865;SDS011;5992;52.744;6.898;2022-07-23T07:59:54;1.20;;;0.70;;
11865;SDS011;5992;52.744;6.898;2022-07-23T08:03:20;3.50;;;1.13;;
11865;SDS011;5992;52.744;6.898;2022-07-23T08:06:40;0.93;;;0.50;;
11865;SDS011;5992;52.744;6.898;2022-07-23T08:10:12;0.60;;;0.60;;
11865;SDS011;5992;52.744;6.898;2022-07-23T08:13:29;1.13;;;0.70;;
11865;SDS011;5992;52.744;6.898;2022-07-23T08:16:49;2.90;;;0.73;;
11865;SDS011;5992;52.744;6.898;2022-07-23T08:20:07;1.13;;;0.83;;
11865;SDS011;5992;52.744;6.898;2022-07-23T08:23:37;0.83;;;0.80;;
11865;SDS011;5992;52.744;6.898;2022-07-23T08:26:44;0.63;;;0.63;;
11865;SDS011;5992;52.744;6.898;2022-07-23T08:30:09;0.50;;;0.50;;
11865;SDS011;5992;52.744;6.898;2022-07-23T08:33:31;0.50;;;0.40;;
11865;SDS011;5992;52.744;6.898;2022-07-23T08:37:08;1.33;;;0.90;;
11865;SDS011;5992;52.744;6.898;2022-07-23T08:40:27;0.60;;;0.60;;
11865;SDS011;5992;52.744;6.898;2022-07-23T08:43:59;1.10;;;0.50;;
11865;SDS011;5992;52.744;6.898;2022-07-23T08:47:18;0.77;;;0.77;;
11865;SDS011;5992;52.744;6.898;2022-07-23T08:50:36;0.63;;;0.63;;
11865;SDS011;5992;52.744;6.898;2022-07-23T08:53:54;1.10;;;0.70;;
11865;SDS011;5992;52.744;6.898;2022-07-23T08:57:22;0.50;;;0.50;;
11865;SDS011;5992;52.744;6.898;2022-07-23T09:00:30;0.90;;;0.60;;
11865;SDS011;5992;52.744;6.898;2022-07-23T09:03:59;0.50;;;0.50;;
11865;SDS011;5992;52.744;6.898;2022-07-23T09:07:15;2.00;;;0.67;;
11865;SDS011;5992;52.744;6.898;2022-07-23T09:10:45;0.60;;;0.60;;
11865;SDS011;5992;52.744;6.898;2022-07-23T09:14:01;0.87;;;0.60;;
11865;SDS011;5992;52.744;6.898;2022-07-23T09:17:21;0.63;;;0.63;;
11865;SDS011;5992;52.744;6.898;2022-07-23T09:20:28;0.53;;;0.47;;
11865;SDS011;5992;52.744;6.898;2022-07-23T09:23:49;0.75;;;0.75;;
11865;SDS011;5992;52.744;6.898;2022-07-23T09:27:09;1.60;;;0.40;;
11865;SDS011;5992;52.744;6.898;2022-07-23T09:30:42;0.83;;;0.50;;
11865;SDS011;5992;52.744;6.898;2022-07-23T09:33:49;0.57;;;0.57;;
11865;SDS011;5992;52.744;6.898;2022-07-23T09:37:18;1.00;;;0.60;;
11865;SDS011;5992;52.744;6.898;2022-07-23T09:40:34;0.30;;;0.30;;
11865;SDS011;5992;52.744;6.898;2022-07-23T09:44:08;0.37;;;0.37;;
11865;SDS011;5992;52.744;6.898;2022-07-23T09:47:24;0.80;;;0.40;;
11865;SDS011;5992;52.744;6.898;2022-07-23T12:03:50;0.73;;;0.73;;
11865;SDS011;5992;52.744;6.898;2022-07-23T12:10:59;0.80;;;0.70;;
11865;SDS011;5992;52.744;6.898;2022-07-23T12:14:06;0.80;;;0.65;;
11865;SDS011;5992;52.744;6.898;2022-07-23T12:17:36;0.83;;;0.83;;
11865;SDS011;5992;52.744;6.898;2022-07-23T12:20:56;0.70;;;0.70;;
11865;SDS011;5992;52.744;6.898;2022-07-23T12:24:33;0.65;;;0.60;;
11865;SDS011;5992;52.744;6.898;2022-07-23T12:27:57;0.70;;;0.70;;
11865;SDS011;5992;52.744;6.898;2022-07-23T12:31:28;1.08;;;0.80;;
11865;SDS011;5992;52.744;6.898;2022-07-23T12:34:48;5.40;;;1.60;;
11865;SDS011;5992;52.744;6.898;2022-07-23T12:38:19;7.00;;;1.40;;
11865;SDS011;5992;52.744;6.898;2022-07-23T12:41:50;9.60;;;1.40;;
11865;SDS011;5992;52.744;6.898;2022-07-23T12:45:19;5.10;;;1.30;;
11865;SDS011;5992;52.744;6.898;2022-07-23T12:48:35;21.10;;;2.90;;
11865;SDS011;5992;52.744;6.898;2022-07-23T12:55:32;5.35;;;1.35;;
11865;SDS011;5992;52.744;6.898;2022-07-23T13:02:20;5.40;;;1.10;;
11865;SDS011;5992;52.744;6.898;2022-07-23T13:05:41;3.50;;;1.25;;
11865;SDS011;5992;52.744;6.898;2022-07-23T13:08:51;2.60;;;1.20;;
11865;SDS011;5992;52.744;6.898;2022-07-23T13:12:12;1.20;;;1.10;;
11865;SDS011;5992;52.744;6.898;2022-07-23T13:15:31;2.80;;;1.25;;
11865;SDS011;5992;52.744;6.898;2022-07-23T13:18:52;1.60;;;0.90;;
11865;SDS011;5992;52.744;6.898;2022-07-23T13:22:11;2.60;;;1.10;;
11865;SDS011;5992;52.744;6.898;2022-07-23T13:28:49;1.05;;;0.90;;
11865;SDS011;5992;52.744;6.898;2022-07-23T13:32:22;1.02;;;0.98;;
11865;SDS011;5992;52.744;6.898;2022-07-23T13:35:39;4.10;;;1.00;;
11865;SDS011;5992;52.744;6.898;2022-07-23T13:38:59;1.20;;;1.00;;
11865;SDS011;5992;52.744;6.898;2022-07-23T13:42:06;2.65;;;1.10;;
11865;SDS011;5992;52.744;6.898;2022-07-23T13:45:42;0.90;;;0.90;;
11865;SDS011;5992;52.744;6.898;2022-07-23T13:48:58;0.85;;;0.85;;
11865;SDS011;5992;52.744;6.898;2022-07-23T13:52:16;1.15;;;1.12;;
11865;SDS011;5992;52.744;6.898;2022-07-23T13:55:36;1.00;;;1.00;;
11865;SDS011;5992;52.744;6.898;2022-07-23T13:59:07;1.25;;;1.15;;
11865;SDS011;5992;52.744;6.898;2022-07-23T14:02:25;0.80;;;0.80;;
11865;SDS011;5992;52.744;6.898;2022-07-23T14:05:56;0.95;;;0.95;;
11865;SDS011;5992;52.744;6.898;2022-07-23T14:09:15;1.65;;;1.08;;
11865;SDS011;5992;52.744;6.898;2022-07-23T14:12:36;0.90;;;0.90;;
11865;SDS011;5992;52.744;6.898;2022-07-23T14:15:46;1.10;;;1.10;;
11865;SDS011;5992;52.744;6.898;2022-07-23T14:19:21;1.52;;;1.10;;
11865;SDS011;5992;52.744;6.898;2022-07-23T14:22:39;1.10;;;1.00;;
11865;SDS011;5992;52.744;6.898;2022-07-23T14:26:16;0.90;;;0.90;;
11865;SDS011;5992;52.744;6.898;2022-07-23T14:29:40;1.85;;;1.08;;
11865;SDS011;5992;52.744;6.898;2022-07-23T14:33:05;1.12;;;1.12;;
11865;SDS011;5992;52.744;6.898;2022-07-23T14:36:11;1.42;;;1.10;;
11865;SDS011;5992;52.744;6.898;2022-07-23T14:39:45;1.20;;;1.10;;
11865;SDS011;5992;52.744;6.898;2022-07-23T14:43:04;1.17;;;1.17;;
11865;SDS011;5992;52.744;6.898;2022-07-23T14:46:20;2.05;;;1.10;;
11865;SDS011;5992;52.744;6.898;2022-07-23T14:49:25;0.90;;;0.90;;
11865;SDS011;5992;52.744;6.898;2022-07-23T14:52:58;1.35;;;1.25;;
11865;SDS011;5992;52.744;6.898;2022-07-23T14:56:17;0.90;;;0.90;;
11865;SDS011;5992;52.744;6.898;2022-07-23T14:59:41;1.48;;;1.35;;
11865;SDS011;5992;52.744;6.898;2022-07-23T15:02:50;0.90;;;0.90;;
11865;SDS011;5992;52.744;6.898;2022-07-23T15:06:18;1.00;;;1.00;;
11865;SDS011;5992;52.744;6.898;2022-07-23T15:09:24;0.95;;;0.95;;
11865;SDS011;5992;52.744;6.898;2022-07-23T15:12:52;0.90;;;0.90;;
11865;SDS011;5992;52.744;6.898;2022-07-23T15:15:57;1.03;;;1.03;;
11865;SDS011;5992;52.744;6.898;2022-07-23T15:19:32;1.03;;;1.03;;
11865;SDS011;5992;52.744;6.898;2022-07-23T15:22:41;1.07;;;1.00;;
11865;SDS011;5992;52.744;6.898;2022-07-23T15:29:39;4.47;;;1.55;;
11865;SDS011;5992;52.744;6.898;2022-07-23T15:33:26;5.28;;;1.70;;
11865;SDS011;5992;52.744;6.898;2022-07-23T15:36:29;3.67;;;1.33;;
11865;SDS011;5992;52.744;6.898;2022-07-23T15:39:52;3.60;;;1.35;;
11865;SDS011;5992;52.744;6.898;2022-07-23T15:43:03;6.80;;;1.40;;
11865;SDS011;5992;52.744;6.898;2022-07-23T15:46:32;6.97;;;1.20;;
11865;SDS011;5992;52.744;6.898;2022-07-23T15:49:51;1.55;;;1.42;;
11865;SDS011;5992;52.744;6.898;2022-07-23T15:53:21;2.85;;;1.42;;
11865;SDS011;5992;52.744;6.898;2022-07-23T15:56:31;1.50;;;1.40;;
11865;SDS011;5992;52.744;6.898;2022-07-23T15:59:54;5.45;;;1.65;;
11865;SDS011;5992;52.744;6.898;2022-07-23T16:03:28;1.17;;;1.17;;
11865;SDS011;5992;52.744;6.898;2022-07-23T16:06:44;1.30;;;1.30;;
11865;SDS011;5992;52.744;6.898;2022-07-23T16:10:22;1.45;;;1.35;;
11865;SDS011;5992;52.744;6.898;2022-07-23T16:13:41;3.55;;;1.25;;
11865;SDS011;5992;52.744;6.898;2022-07-23T16:17:14;1.43;;;1.00;;
11865;SDS011;5992;52.744;6.898;2022-07-23T16:20:36;5.65;;;1.70;;
11865;SDS011;5992;52.744;6.898;2022-07-23T16:24:08;9.37;;;2.00;;
11865;SDS011;5992;52.744;6.898;2022-07-23T16:27:32;10.35;;;1.60;;
11865;SDS011;5992;52.744;6.898;2022-07-23T16:31:02;7.75;;;2.12;;
11865;SDS011;5992;52.744;6.898;2022-07-23T16:34:20;2.95;;;1.58;;
11865;SDS011;5992;52.744;6.898;2022-07-23T16:37:48;3.40;;;1.58;;
11865;SDS011;5992;52.744;6.898;2022-07-23T16:41:05;3.07;;;1.30;;
11865;SDS011;5992;52.744;6.898;2022-07-23T16:44:38;3.42;;;1.85;;
11865;SDS011;5992;52.744;6.898;2022-07-23T16:48:09;2.83;;;1.42;;
11865;SDS011;5992;52.744;6.898;2022-07-23T16:51:46;2.15;;;1.25;;
11865;SDS011;5992;52.744;6.898;2022-07-23T16:55:14;3.90;;;1.55;;
11865;SDS011;5992;52.744;6.898;2022-07-23T16:58:45;1.50;;;1.40;;
11865;SDS011;5992;52.744;6.898;2022-07-23T17:02:04;2.45;;;1.35;;
11865;SDS011;5992;52.744;6.898;2022-07-23T17:05:27;1.70;;;1.20;;
11865;SDS011;5992;52.744;6.898;2022-07-23T17:08:51;1.20;;;1.20;;
11865;SDS011;5992;52.744;6.898;2022-07-23T17:12:19;2.80;;;1.40;;
11865;SDS011;5992;52.744;6.898;2022-07-23T17:15:26;2.50;;;1.30;;
11865;SDS011;5992;52.744;6.898;2022-07-23T18:57:59;1.30;;;1.20;;
11865;SDS011;5992;52.744;6.898;2022-07-23T19:04:23;1.20;;;1.20;;
11865;SDS011;5992;52.744;6.898;2022-07-23T19:11:11;1.15;;;1.00;;
11865;SDS011;5992;52.744;6.898;2022-07-23T19:14:31;1.40;;;0.90;;
11865;SDS011;5992;52.744;6.898;2022-07-23T19:17:38;1.00;;;1.00;;
11865;SDS011;5992;52.744;6.898;2022-07-23T19:24:16;1.03;;;1.03;;
11865;SDS011;5992;52.744;6.898;2022-07-23T19:27:48;0.93;;;0.93;;
11865;SDS011;5992;52.744;6.898;2022-07-23T19:30:55;1.17;;;1.17;;
11865;SDS011;5992;52.744;6.898;2022-07-23T19:37:25;1.10;;;1.00;;
11865;SDS011;5992;52.744;6.898;2022-07-23T19:40:57;1.40;;;1.40;;
11865;SDS011;5992;52.744;6.898;2022-07-23T19:44:05;1.50;;;1.40;;
11865;SDS011;5992;52.744;6.898;2022-07-23T19:50:34;1.27;;;1.17;;
11865;SDS011;5992;52.744;6.898;2022-07-23T19:54:00;1.43;;;1.33;;
11865;SDS011;5992;52.744;6.898;2022-07-23T19:57:20;1.30;;;1.20;;
11865;SDS011;5992;52.744;6.898;2022-07-23T20:00:44;1.47;;;1.43;;
11865;SDS011;5992;52.744;6.898;2022-07-23T20:04:08;1.33;;;1.27;;
11865;SDS011;5992;52.744;6.898;2022-07-23T20:07:14;1.40;;;1.30;;
11865;SDS011;5992;52.744;6.898;2022-07-23T20:10:49;1.50;;;1.30;;
11865;SDS011;5992;52.744;6.898;2022-07-23T20:14:09;1.47;;;1.07;;
11865;SDS011;5992;52.744;6.898;2022-07-23T20:17:27;1.50;;;1.50;;
11865;SDS011;5992;52.744;6.898;2022-07-23T20:20:44;1.50;;;1.40;;
11865;SDS011;5992;52.744;6.898;2022-07-23T20:24:17;1.47;;;1.40;;
11865;SDS011;5992;52.744;6.898;2022-07-23T20:27:38;1.53;;;1.43;;
11865;SDS011;5992;52.744;6.898;2022-07-23T20:31:16;1.20;;;1.20;;
11865;SDS011;5992;52.744;6.898;2022-07-23T20:34:38;1.23;;;1.23;;
11865;SDS011;5992;52.744;6.898;2022-07-23T20:38:12;1.40;;;1.20;;
11865;SDS011;5992;52.744;6.898;2022-07-23T20:41:30;1.57;;;1.47;;
11865;SDS011;5992;52.744;6.898;2022-07-23T20:45:07;1.40;;;1.30;;
11865;SDS011;5992;52.744;6.898;2022-07-23T20:48:26;1.20;;;1.20;;
11865;SDS011;5992;52.744;6.898;2022-07-23T20:51:44;1.70;;;1.60;;
11865;SDS011;5992;52.744;6.898;2022-07-23T20:54:59;1.30;;;1.30;;
11865;SDS011;5992;52.744;6.898;2022-07-23T20:58:32;1.20;;;1.20;;
11865;SDS011;5992;52.744;6.898;2022-07-23T21:01:51;1.73;;;1.63;;
11865;SDS011;5992;52.744;6.898;2022-07-23T21:05:24;2.07;;;1.87;;
11865;SDS011;5992;52.744;6.898;2022-07-23T21:08:43;1.70;;;1.60;;
11865;SDS011;5992;52.744;6.898;2022-07-23T21:12:14;1.40;;;1.40;;
11865;SDS011;5992;52.744;6.898;2022-07-23T21:15:33;1.70;;;1.60;;
11865;SDS011;5992;52.744;6.898;2022-07-23T21:19:04;1.87;;;1.70;;
11865;SDS011;5992;52.744;6.898;2022-07-23T21:22:24;1.50;;;1.40;;
11865;SDS011;5992;52.744;6.898;2022-07-23T21:25:47;2.33;;;1.40;;
11865;SDS011;5992;52.744;6.898;2022-07-23T21:29:03;1.83;;;1.50;;
11865;SDS011;5992;52.744;6.898;2022-07-23T21:35:45;1.57;;;1.50;;
11865;SDS011;5992;52.744;6.898;2022-07-23T21:39:20;1.53;;;1.47;;
11865;SDS011;5992;52.744;6.898;2022-07-23T21:42:29;1.70;;;1.60;;
11865;SDS011;5992;52.744;6.898;2022-07-23T21:46:07;1.70;;;1.60;;
11865;SDS011;5992;52.744;6.898;2022-07-23T21:49:29;1.60;;;1.50;;
11865;SDS011;5992;52.744;6.898;2022-07-23T21:52:52;1.90;;;1.80;;
11865;SDS011;5992;52.744;6.898;2022-07-23T21:56:12;1.63;;;1.53;;
11865;SDS011;5992;52.744;6.898;2022-07-23T21:59:35;1.60;;;1.50;;
11865;SDS011;5992;52.744;6.898;2022-07-23T22:02:48;1.70;;;1.60;;
11865;SDS011;5992;52.744;6.898;2022-07-23T22:06:19;3.03;;;1.70;;
11865;SDS011;5992;52.744;6.898;2022-07-23T22:09:28;1.80;;;1.30;;
11865;SDS011;5992;52.744;6.898;2022-07-23T22:13:05;2.53;;;1.60;;
11865;SDS011;5992;52.744;6.898;2022-07-23T22:16:14;1.67;;;1.53;;
11865;SDS011;5992;52.744;6.898;2022-07-23T22:19:47;1.70;;;1.60;;
11865;SDS011;5992;52.744;6.898;2022-07-23T22:22:52;1.93;;;1.70;;
11865;SDS011;5992;52.744;6.898;2022-07-23T22:26:23;1.60;;;1.50;;
11865;SDS011;5992;52.744;6.898;2022-07-23T22:29:42;1.83;;;1.73;;
11865;SDS011;5992;52.744;6.898;2022-07-23T22:33:15;1.80;;;1.70;;
11865;SDS011;5992;52.744;6.898;2022-07-23T22:36:22;2.05;;;1.90;;
11865;SDS011;5992;52.744;6.898;2022-07-23T22:39:42;1.93;;;1.70;;
11865;SDS011;5992;52.744;6.898;2022-07-23T22:42:48;1.60;;;1.50;;
11865;SDS011;5992;52.744;6.898;2022-07-23T22:46:28;2.10;;;1.60;;
11865;SDS011;5992;52.744;6.898;2022-07-23T22:49:33;1.63;;;1.53;;
11865;SDS011;5992;52.744;6.898;2022-07-23T22:52:56;2.00;;;1.90;;
11865;SDS011;5992;52.744;6.898;2022-07-23T22:59:02;1.80;;;1.70;;
11865;SDS011;5992;52.744;6.898;2022-07-23T23:02:35;2.30;;;1.70;;
11865;SDS011;5992;52.744;6.898;2022-07-23T23:09:16;2.10;;;1.90;;
11865;SDS011;5992;52.744;6.898;2022-07-23T23:12:23;2.55;;;1.60;;
11865;SDS011;5992;52.744;6.898;2022-07-23T23:19:07;1.57;;;1.47;;
11865;SDS011;5992;52.744;6.898;2022-07-23T23:22:48;1.80;;;1.70;;
11865;SDS011;5992;52.744;6.898;2022-07-23T23:26:04;1.67;;;1.57;;
11865;SDS011;5992;52.744;6.898;2022-07-23T23:29:36;1.80;;;1.60;;
11865;SDS011;5992;52.744;6.898;2022-07-23T23:36:33;1.85;;;1.60;;
11865;SDS011;5992;52.744;6.898;2022-07-23T23:39:52;1.70;;;1.60;;
11865;SDS011;5992;52.744;6.898;2022-07-23T23:43:17;1.80;;;1.70;;
11865;SDS011;5992;52.744;6.898;2022-07-23T23:46:36;1.60;;;1.50;;
11865;SDS011;5992;52.744;6.898;2022-07-23T23:49:57;1.35;;;1.35;;
11865;SDS011;5992;52.744;6.898;2022-07-23T23:53:21;1.67;;;1.57;;
11865;SDS011;5992;52.744;6.898;2022-07-23T23:56:55;2.20;;;1.80;;
